Oceanside, CA (92054)

4:21 AM PST on November 23, 2014 (GMT -0800)
South Oceanside/Fire Mountain | Change Station
CLOSE
Current Station
Personal Weather Station
Location: Oceanside, CA
Elevation: 121 ft
Nearby Weather Stations

Elev 121 ft 33.19 °N, 117.36 °W | Updated 7 seconds ago

Clear
Clear
53.1 °F
Feels Like 53.1 °F
N
2.0
Wind Variable Wind from NNE
Gusts 7.0 mph

Today
High -- | Low -- °F
--% Chance of Precip.
Yesterday
High -- | Low -- °F
Precip. -- in
6:27 AM 4:43 PM
New Moon, 1% visible
Pressure 30.03 in
Visibility 9.0 miles
Clouds Clear
Dew Point 50 °F
Humidity 91%
Rainfall 0.00 in
Snow Depth Not available.
UV 0 out of 12
Pollen 2.90 out of 12
Air Quality Not available.
Flu Activity Not available.
METAR KOKB 231152Z AUTO 00000KT 9SM CLR 11/09 A3003 RMK AO2 SLP168 T01060089 10122 20106 58001

More Conditions Fewer Conditions

Pressure 30.03 in
Visibility 9.0 miles
Clouds Clear
Dew Point 50 °F
Humidity 91%
Rainfall 0.00 in
Snow Depth Not available.
UV 0 out of 12
Pollen 2.90 out of 12
Air Quality Not available.
Flu Activity Not available.
METAR KOKB 231152Z AUTO 00000KT 9SM CLR 11/09 A3003 RMK AO2 SLP168 T01060089 10122 20106 58001

More Conditions Fewer Conditions

10-Day Weather Forecast

Almanac

Astronomy

Nov. 23, 2014 Rise Set
Actual Time
Civil Twilight
Nautical Twilight
Astronomical Twilight
Moon
Length of Visible Light
Length of Day
Tomorrow will be .
, % of the Moon is Illuminated

Today's Extremes

State Highs State Lows

Community

WunderPhotos

Upload Photos

1,773,050 photos uploaded!

WunderBlogs® & News

Nearby

Air Quality

  Air Quality AQ Index Pollutant
Not available.

Snow Depth

Station Depth Elevation

Earthquake Activity

City Distance Mag. Time & Date
Minimum magnitude displayed is 2.5.

Coastal Water Temperatures

Place Temperature

Nearby Weather Stations